createdAt,value
2018-04-12T00:01:05.235Z,99.90
2018-04-12T00:03:33.527Z,99.90
2018-04-12T00:06:01.056Z,99.90
2018-04-12T00:08:29.311Z,99.90
2018-04-12T00:10:56.795Z,99.90
2018-04-12T00:13:25.123Z,99.90
2018-04-12T00:15:52.622Z,99.90
2018-04-12T00:18:20.917Z,99.90
2018-04-12T00:20:48.434Z,99.90
2018-04-12T00:23:15.926Z,99.90
2018-04-12T00:25:44.187Z,99.90
2018-04-12T00:28:12.497Z,99.90
2018-04-12T00:30:40.028Z,99.90
2018-04-12T00:33:08.288Z,99.90
2018-04-12T00:35:35.812Z,99.90
2018-04-12T00:38:03.358Z,99.90
2018-04-12T00:40:30.837Z,99.90
2018-04-12T00:42:58.345Z,99.90
2018-04-12T00:45:26.619Z,99.90
2018-04-12T00:47:54.907Z,99.90
2018-04-12T00:50:22.457Z,99.90
2018-04-12T00:52:50.714Z,99.90
2018-04-12T00:55:18.954Z,99.90
2018-04-12T00:57:46.454Z,99.90
2018-04-12T01:00:14.749Z,99.90
2018-04-12T01:02:42.299Z,99.90
2018-04-12T01:05:10.607Z,99.90
2018-04-12T01:07:38.146Z,99.90
2018-04-12T01:10:05.680Z,99.90
2018-04-12T01:12:33.967Z,99.90
2018-04-12T01:15:02.237Z,99.90
2018-04-12T01:17:30.528Z,99.90
2018-04-12T01:19:58.080Z,99.90
2018-04-12T01:22:26.397Z,99.90
2018-04-12T01:24:53.917Z,99.90
2018-04-12T01:27:22.228Z,99.90
2018-04-12T01:29:49.739Z,99.90
2018-04-12T01:32:18.019Z,99.90
2018-04-12T01:34:46.303Z,99.90
2018-04-12T01:37:14.582Z,99.90
2018-04-12T01:39:42.867Z,99.90
2018-04-12T01:42:10.341Z,99.90
2018-04-12T01:44:38.788Z,99.90
2018-04-12T01:47:07.096Z,99.90
2018-04-12T01:49:34.617Z,99.90
2018-04-12T01:52:02.168Z,99.90
2018-04-12T01:54:29.672Z,99.90
2018-04-12T01:56:57.206Z,99.90
2018-04-12T01:59:25.488Z,99.90
2018-04-12T02:01:53.716Z,99.90
2018-04-12T02:04:21.227Z,99.90
2018-04-12T02:06:48.708Z,99.90
2018-04-12T02:09:16.217Z,99.90
2018-04-12T02:11:44.546Z,99.90
2018-04-12T02:14:12.025Z,99.90
2018-04-12T02:16:39.558Z,99.90
2018-04-12T02:19:07.071Z,99.90
2018-04-12T02:21:35.319Z,99.90
2018-04-12T02:24:02.786Z,99.90
2018-04-12T02:26:30.294Z,99.90
2018-04-12T02:28:57.816Z,99.90
2018-04-12T02:31:26.104Z,99.90
2018-04-12T02:33:53.631Z,99.90
2018-04-12T02:36:21.127Z,99.90
2018-04-12T02:38:48.630Z,99.90
2018-04-12T02:41:16.178Z,99.90
2018-04-12T02:43:43.644Z,99.90
2018-04-12T02:46:11.127Z,99.90
2018-04-12T02:51:12.532Z,99.90
2018-04-12T02:53:40.090Z,99.90
2018-04-12T02:56:07.639Z,99.90
2018-04-12T02:58:35.179Z,99.90
2018-04-12T03:01:03.461Z,99.90
2018-04-12T03:03:31.784Z,99.90
2018-04-12T03:05:59.294Z,99.90
2018-04-12T03:08:27.611Z,99.90
2018-04-12T03:10:55.090Z,99.90
2018-04-12T03:13:22.620Z,99.90
2018-04-12T03:15:50.132Z,99.90
2018-04-12T03:18:17.602Z,99.90
2018-04-12T03:20:45.870Z,99.90
2018-04-12T03:23:14.135Z,99.90
2018-04-12T03:25:42.435Z,99.90
2018-04-12T03:28:09.980Z,99.90
2018-04-12T03:30:38.230Z,99.90
2018-04-12T03:33:05.735Z,99.90
2018-04-12T03:35:33.243Z,99.90
2018-04-12T03:38:02.728Z,99.90
2018-04-12T03:40:30.249Z,99.90
2018-04-12T03:42:57.762Z,99.90
2018-04-12T03:45:25.299Z,99.90
2018-04-12T03:47:52.772Z,99.90
2018-04-12T03:50:20.392Z,99.90
2018-04-12T03:52:51.654Z,99.90
2018-04-12T03:55:19.170Z,99.90
2018-04-12T03:57:47.510Z,99.90
2018-04-12T04:00:15.760Z,99.90
2018-04-12T04:02:43.283Z,99.90
2018-04-12T04:05:11.552Z,99.90
2018-04-12T04:07:39.818Z,99.90
2018-04-12T04:10:07.286Z,99.90
2018-04-12T04:12:35.577Z,99.90
2018-04-12T04:15:25.397Z,99.90
2018-04-12T04:18:06.947Z,99.90
2018-04-12T04:20:47.002Z,99.90
2018-04-12T04:23:14.517Z,99.90
2018-04-12T04:25:42.035Z,99.90
2018-04-12T04:28:09.548Z,99.90
2018-04-12T04:30:37.028Z,99.90
2018-04-12T04:33:05.261Z,99.90
2018-04-12T04:35:32.777Z,99.90
2018-04-12T04:38:00.299Z,99.90
2018-04-12T04:40:27.783Z,99.90
2018-04-12T04:42:55.340Z,99.90
2018-04-12T04:45:22.891Z,99.90
2018-04-12T04:47:51.153Z,99.90
2018-04-12T04:50:19.469Z,99.90
2018-04-12T04:52:47.003Z,99.90
2018-04-12T04:55:14.489Z,99.90
2018-04-12T04:57:42.032Z,99.90
2018-04-12T05:00:09.529Z,99.90
2018-04-12T05:02:37.213Z,99.90
2018-04-12T05:05:04.704Z,99.90
2018-04-12T05:07:32.240Z,99.90
2018-04-12T05:09:59.717Z,99.90
2018-04-12T05:12:27.210Z,99.90
2018-04-12T05:14:54.708Z,99.90
2018-04-12T05:17:22.190Z,99.90
2018-04-12T05:19:49.723Z,99.90
2018-04-12T05:22:17.239Z,99.90
2018-04-12T05:24:44.716Z,99.90
2018-04-12T05:27:12.229Z,99.90
2018-04-12T05:29:39.715Z,99.90
2018-04-12T05:32:07.219Z,99.90
2018-04-12T05:34:34.734Z,99.90
2018-04-12T05:37:02.243Z,99.90
2018-04-12T05:39:30.580Z,93.20
2018-04-12T05:42:00.072Z,93.20
2018-04-12T05:44:27.603Z,90.90
2018-04-12T05:46:55.074Z,87.50
2018-04-12T05:49:22.612Z,85.90
2018-04-12T05:51:50.140Z,82.90
2018-04-12T05:54:17.822Z,80.40
2018-04-12T05:56:46.058Z,77.50
2018-04-12T05:59:13.609Z,77.50
2018-04-12T06:01:41.109Z,81.90
2018-04-12T06:04:10.237Z,91.10
2018-04-12T06:06:38.721Z,91.10
2018-04-12T06:09:06.203Z,91.40
2018-04-12T06:11:33.723Z,92.20
2018-04-12T06:14:01.264Z,91.30
2018-04-12T06:16:28.835Z,90.90
2018-04-12T06:18:56.357Z,91.20
2018-04-12T06:21:23.843Z,91.70
2018-04-12T06:23:51.344Z,91.90
2018-04-12T06:26:18.864Z,92.00
2018-04-12T06:28:46.381Z,92.30
2018-04-12T06:31:13.871Z,92.50
2018-04-12T06:33:41.388Z,92.50
2018-04-12T06:36:08.850Z,92.30
2018-04-12T06:38:36.913Z,91.10
2018-04-12T06:41:04.407Z,90.00
2018-04-12T06:43:32.714Z,91.80
2018-04-12T06:46:00.250Z,91.80
2018-04-12T06:48:27.755Z,92.70
2018-04-12T06:50:55.229Z,92.60
2018-04-12T06:53:22.744Z,92.20
2018-04-12T06:55:50.285Z,92.30
2018-04-12T06:58:18.468Z,92.00
2018-04-12T07:00:46.190Z,92.20
2018-04-12T07:03:13.882Z,92.20
2018-04-12T07:05:42.315Z,92.30
2018-04-12T07:08:09.887Z,92.50
2018-04-12T07:10:38.538Z,92.30
2018-04-12T07:13:06.176Z,92.10
2018-04-12T07:15:33.644Z,91.70
2018-04-12T07:18:01.146Z,91.30
2018-04-12T07:20:28.670Z,91.10
2018-04-12T07:22:56.177Z,91.00
2018-04-12T07:25:24.609Z,90.60
2018-04-12T07:27:52.151Z,90.60
2018-04-12T07:30:19.701Z,88.80
2018-04-12T07:32:47.212Z,84.60
2018-04-12T07:35:15.646Z,79.70
2018-04-12T07:37:43.322Z,74.80
2018-04-12T07:40:10.780Z,69.10
2018-04-12T07:42:38.847Z,64.70
2018-04-12T07:45:06.398Z,58.30
2018-04-12T07:47:33.911Z,55.90
2018-04-12T07:50:02.216Z,50.30
2018-04-12T07:52:29.711Z,50.20
2018-04-12T07:54:57.263Z,49.00
2018-04-12T07:57:27.005Z,50.80
2018-04-12T07:59:54.471Z,44.80
2018-04-12T08:02:22.760Z,48.30
2018-04-12T08:04:51.027Z,47.90
2018-04-12T08:07:19.542Z,45.30
2018-04-12T08:09:47.047Z,45.30
2018-04-12T08:12:15.479Z,46.00
2018-04-12T08:14:42.946Z,41.80
2018-04-12T08:17:10.604Z,45.50
2018-04-12T08:19:38.101Z,46.30
2018-04-12T08:22:07.765Z,48.40
2018-04-12T08:24:35.250Z,49.60
2018-04-12T08:27:03.100Z,51.30
2018-04-12T08:29:30.974Z,53.10
2018-04-12T08:31:58.513Z,49.80
2018-04-12T08:34:26.090Z,51.00
2018-04-12T08:36:53.629Z,50.20
2018-04-12T08:39:21.921Z,47.10
2018-04-12T08:41:50.035Z,50.90
2018-04-12T08:44:17.513Z,48.50
2018-04-12T08:46:45.103Z,51.70
2018-04-12T08:49:12.595Z,55.70
2018-04-12T08:51:40.308Z,59.30
2018-04-12T08:54:07.803Z,65.20
2018-04-12T08:56:36.407Z,61.30
2018-04-12T08:59:03.924Z,65.60
2018-04-12T09:01:31.415Z,68.70
2018-04-12T09:03:58.870Z,68.90
2018-04-12T09:06:26.384Z,65.60
2018-04-12T09:08:53.855Z,65.10
2018-04-12T09:11:21.318Z,64.30
2018-04-12T09:13:48.801Z,66.30
2018-04-12T09:16:16.261Z,68.70
2018-04-12T09:18:43.759Z,69.20
2018-04-12T09:21:11.268Z,70.80
2018-04-12T09:23:38.774Z,67.60
2018-04-12T09:26:06.278Z,68.30
2018-04-12T09:28:33.807Z,63.80
2018-04-12T09:31:01.304Z,65.90
2018-04-12T09:33:28.786Z,73.70
2018-04-12T09:35:57.072Z,65.70
2018-04-12T09:38:24.540Z,65.70
2018-04-12T09:40:52.040Z,72.00
2018-04-12T09:43:19.513Z,75.30
2018-04-12T09:45:47.012Z,74.40
2018-04-12T09:48:14.511Z,76.80
2018-04-12T09:50:42.006Z,72.40
2018-04-12T09:53:10.271Z,66.40
2018-04-12T09:55:37.735Z,66.40
2018-04-12T09:58:05.982Z,67.30
2018-04-12T10:00:33.475Z,67.30
2018-04-12T10:03:00.979Z,67.80
2018-04-12T10:05:30.269Z,65.80
2018-04-12T10:08:03.451Z,68.20
2018-04-12T10:10:30.962Z,74.40
2018-04-12T10:12:58.485Z,63.70
2018-04-12T10:15:25.987Z,69.80
2018-04-12T10:17:54.306Z,72.60
2018-04-12T10:20:21.809Z,72.20
2018-04-12T10:22:49.317Z,63.40
2018-04-12T10:25:16.821Z,62.60
2018-04-12T10:27:44.348Z,67.10
2018-04-12T10:30:11.821Z,69.00
2018-04-12T10:32:39.346Z,64.00
2018-04-12T10:35:06.933Z,65.10
2018-04-12T10:37:34.418Z,68.00
2018-04-12T10:40:02.720Z,67.70
2018-04-12T10:42:30.198Z,67.60
2018-04-12T10:44:57.722Z,61.00
2018-04-12T10:47:25.946Z,68.70
2018-04-12T10:49:53.480Z,68.00
2018-04-12T10:52:20.958Z,65.20
2018-04-12T10:54:48.474Z,60.90
2018-04-12T10:57:16.781Z,67.00
2018-04-12T10:59:44.315Z,66.80
2018-04-12T11:02:12.592Z,64.00
2018-04-12T11:04:40.087Z,64.70
2018-04-12T11:07:07.603Z,66.30
2018-04-12T11:09:36.600Z,62.80
2018-04-12T11:12:05.302Z,62.20
2018-04-12T11:14:32.787Z,62.20
2018-04-12T11:17:00.306Z,58.90
2018-04-12T11:19:27.811Z,57.50
2018-04-12T11:21:56.083Z,59.30
2018-04-12T11:24:23.586Z,59.40
2018-04-12T11:26:51.834Z,58.10
2018-04-12T11:29:19.388Z,57.60
2018-04-12T11:31:46.994Z,57.30
2018-04-12T11:34:14.473Z,65.80
2018-04-12T11:36:41.976Z,65.10
2018-04-12T11:39:09.802Z,64.20
2018-04-12T11:41:37.274Z,62.60
2018-04-12T11:44:04.810Z,59.60
2018-04-12T11:46:32.301Z,60.10
2018-04-12T11:48:59.854Z,59.40
2018-04-12T11:51:27.336Z,62.60
2018-04-12T11:53:55.568Z,57.90
2018-04-12T11:56:23.085Z,57.80
2018-04-12T11:58:51.410Z,59.90
2018-04-12T12:01:18.922Z,59.70
2018-04-12T12:03:47.207Z,62.50
2018-04-12T12:06:14.747Z,62.70
2018-04-12T12:08:43.012Z,62.90
2018-04-12T12:11:10.475Z,62.90
2018-04-12T12:13:38.757Z,60.50
2018-04-12T12:16:07.039Z,57.60
2018-04-12T12:18:35.303Z,55.50
2018-04-12T12:21:03.614Z,57.20
2018-04-12T12:23:31.131Z,57.10
2018-04-12T12:25:59.423Z,56.90
2018-04-12T12:28:27.690Z,56.60
2018-04-12T12:30:55.936Z,56.80
2018-04-12T12:33:28.471Z,56.70
2018-04-12T12:35:55.938Z,53.90
2018-04-12T12:38:23.427Z,58.90
2018-04-12T12:40:51.002Z,58.40
2018-04-12T12:43:18.433Z,58.40
2018-04-12T12:45:45.944Z,59.10
2018-04-12T12:48:13.419Z,58.70
2018-04-12T12:50:40.929Z,55.20
2018-04-12T12:53:09.407Z,55.30
2018-04-12T12:55:36.886Z,57.40
2018-04-12T12:58:04.400Z,58.40
2018-04-12T13:00:32.692Z,54.20
2018-04-12T13:03:00.174Z,54.20
2018-04-12T13:05:28.411Z,56.50
2018-04-12T13:07:56.730Z,53.90
2018-04-12T13:10:24.985Z,52.60
2018-04-12T13:12:52.495Z,52.60
2018-04-12T13:15:19.995Z,55.80
2018-04-12T13:17:47.480Z,51.40
2018-04-12T13:20:15.743Z,54.70
2018-04-12T13:22:44.066Z,53.10
2018-04-12T13:25:11.543Z,53.00
2018-04-12T13:27:39.051Z,55.50
2018-04-12T13:30:07.309Z,55.50
2018-04-12T13:32:35.543Z,55.30
2018-04-12T13:35:03.096Z,55.20
2018-04-12T13:37:30.691Z,56.30
2018-04-12T13:39:58.215Z,55.70
2018-04-12T13:42:25.700Z,55.30
2018-04-12T13:44:53.223Z,54.60
2018-04-12T13:47:20.705Z,55.10
2018-04-12T13:49:48.235Z,54.70
2018-04-12T13:52:15.771Z,54.30
2018-04-12T13:54:43.283Z,56.60
2018-04-12T13:57:10.803Z,53.60
2018-04-12T13:59:38.351Z,56.80
2018-04-12T14:02:05.872Z,53.00
2018-04-12T14:04:34.127Z,55.20
2018-04-12T14:07:01.692Z,55.20
2018-04-12T14:09:29.167Z,53.30
2018-04-12T14:11:57.433Z,54.60
2018-04-12T14:14:24.921Z,54.40
2018-04-12T14:16:52.385Z,54.60
2018-04-12T14:19:19.936Z,53.00
2018-04-12T14:21:49.219Z,50.70
2018-04-12T14:24:16.742Z,50.60
2018-04-12T14:26:44.237Z,50.70
2018-04-12T14:29:12.487Z,51.40
2018-04-12T14:31:40.008Z,51.40
2018-04-12T14:34:10.683Z,52.60
2018-04-12T14:36:38.199Z,53.10
2018-04-12T14:39:06.597Z,55.90
2018-04-12T14:41:35.958Z,55.60
2018-04-12T14:44:03.525Z,55.50
2018-04-12T14:46:31.813Z,52.30
2018-04-12T14:48:59.389Z,54.60
2018-04-12T14:51:26.903Z,55.00
2018-04-12T14:53:55.234Z,55.30
2018-04-12T14:56:22.733Z,55.20
2018-04-12T14:58:50.977Z,53.70
2018-04-12T15:01:18.539Z,53.70
2018-04-12T15:03:46.062Z,52.90
2018-04-12T15:06:14.603Z,54.70
2018-04-12T15:08:43.703Z,51.40
2018-04-12T15:11:11.211Z,51.50
2018-04-12T15:13:39.611Z,52.80
2018-04-12T15:16:07.116Z,55.90
2018-04-12T15:18:34.632Z,53.10
2018-04-12T15:21:02.130Z,55.10
2018-04-12T15:23:29.668Z,54.40
2018-04-12T15:25:57.940Z,54.60
2018-04-12T15:28:26.183Z,54.10
2018-04-12T15:30:53.686Z,54.00
2018-04-12T15:33:22.091Z,53.70
2018-04-12T15:35:49.584Z,52.10
2018-04-12T15:38:19.579Z,55.30
2018-04-12T15:40:47.044Z,55.20
2018-04-12T15:43:15.509Z,56.40
2018-04-12T15:45:42.984Z,56.80
2018-04-12T15:48:11.280Z,56.10
2018-04-12T15:50:38.789Z,55.90
2018-04-12T15:53:06.302Z,54.80
2018-04-12T15:55:33.820Z,56.60
2018-04-12T15:58:01.319Z,57.70
2018-04-12T16:00:28.823Z,58.10
2018-04-12T16:02:56.302Z,58.10
2018-04-12T16:05:29.459Z,56.80
2018-04-12T16:07:56.942Z,56.80
2018-04-12T16:10:25.187Z,57.60
2018-04-12T16:12:52.702Z,57.60
2018-04-12T16:15:20.199Z,58.40
2018-04-12T16:17:47.700Z,59.10
2018-04-12T16:20:15.153Z,61.20
2018-04-12T16:22:42.679Z,61.50
2018-04-12T16:25:10.187Z,64.70
2018-04-12T16:27:39.692Z,65.90
2018-04-12T16:30:07.175Z,66.60
2018-04-12T16:32:36.408Z,62.50
2018-04-12T16:35:03.870Z,62.50
2018-04-12T16:37:31.374Z,63.00
2018-04-12T16:39:58.838Z,60.90
2018-04-12T16:42:27.069Z,63.70
2018-04-12T16:44:54.587Z,63.70
2018-04-12T16:47:22.819Z,64.20
2018-04-12T16:49:50.330Z,64.20
2018-04-12T16:52:17.815Z,62.70
2018-04-12T16:54:45.306Z,63.20
2018-04-12T16:57:12.905Z,64.20
2018-04-12T16:59:40.376Z,63.40
2018-04-12T17:02:07.911Z,63.20
2018-04-12T17:04:35.425Z,63.90
2018-04-12T17:07:02.917Z,63.90
2018-04-12T17:09:30.413Z,64.50
2018-04-12T17:11:57.932Z,65.10
2018-04-12T17:14:26.229Z,67.30
2018-04-12T17:16:53.716Z,67.10
2018-04-12T17:19:21.231Z,70.10
2018-04-12T17:21:50.434Z,73.70
2018-04-12T17:24:17.959Z,73.70
2018-04-12T17:26:46.450Z,72.40
2018-04-12T17:29:14.752Z,74.20
2018-04-12T17:31:42.264Z,74.10
2018-04-12T17:34:09.768Z,73.50
2018-04-12T17:36:38.221Z,72.50
2018-04-12T17:39:07.386Z,73.60
2018-04-12T17:41:34.896Z,73.50
2018-04-12T17:44:06.190Z,73.50
2018-04-12T17:46:36.943Z,76.50
2018-04-12T17:49:04.453Z,76.50
2018-04-12T17:51:31.925Z,77.50
2018-04-12T17:53:59.484Z,77.90
2018-04-12T17:56:26.991Z,78.60
2018-04-12T17:58:55.320Z,78.60
2018-04-12T18:01:22.811Z,78.60
2018-04-12T18:03:50.324Z,79.20
2018-04-12T18:06:17.897Z,79.00
2018-04-12T18:08:45.415Z,80.20
2018-04-12T18:11:13.660Z,85.00
2018-04-12T18:13:41.219Z,85.00
2018-04-12T18:16:08.732Z,84.50
2018-04-12T18:18:36.948Z,86.10
2018-04-12T18:21:04.467Z,87.70
2018-04-12T18:23:31.962Z,89.10
2018-04-12T18:25:59.494Z,89.60
2018-04-12T18:28:26.992Z,90.10
2018-04-12T18:30:54.542Z,90.50
2018-04-12T18:33:22.052Z,91.10
2018-04-12T18:35:49.567Z,91.00
2018-04-12T18:38:17.235Z,91.10
2018-04-12T18:40:45.509Z,90.20
2018-04-12T18:43:13.028Z,89.70
2018-04-12T18:45:40.528Z,89.90
2018-04-12T18:48:08.084Z,90.50
2018-04-12T18:50:36.414Z,90.10
2018-04-12T18:53:03.975Z,90.10
2018-04-12T18:55:31.516Z,89.70
2018-04-12T18:57:59.060Z,90.20
2018-04-12T19:00:26.575Z,82.40
2018-04-12T19:02:54.119Z,80.60
2018-04-12T19:05:21.661Z,81.00
2018-04-12T19:07:49.161Z,81.50
2018-04-12T19:10:16.708Z,83.00
2018-04-12T19:12:44.201Z,84.20
2018-04-12T19:15:12.446Z,82.10
2018-04-12T19:17:39.926Z,82.00
2018-04-12T19:20:08.206Z,84.70
2018-04-12T19:22:36.453Z,83.50
2018-04-12T19:25:05.915Z,83.40
2018-04-12T19:27:33.419Z,81.90
2018-04-12T19:30:00.860Z,81.20
2018-04-12T19:32:28.339Z,82.10
2018-04-12T19:34:55.856Z,84.30
2018-04-12T19:37:23.396Z,81.90
2018-04-12T19:39:50.926Z,81.90
2018-04-12T19:42:19.203Z,82.70
2018-04-12T19:44:47.500Z,83.80
2018-04-12T19:47:15.052Z,83.80
2018-04-12T19:49:42.574Z,83.50
2018-04-12T19:52:10.149Z,83.60
2018-04-12T19:54:37.677Z,82.60
2018-04-12T19:57:05.216Z,82.60
2018-04-12T19:59:32.712Z,83.00
2018-04-12T20:02:00.220Z,82.40
2018-04-12T20:04:27.735Z,82.90
2018-04-12T20:06:55.231Z,83.00
2018-04-12T20:09:22.763Z,84.00
2018-04-12T20:11:50.995Z,82.90
2018-04-12T20:14:18.489Z,82.80
2018-04-12T20:16:47.682Z,88.00
2018-04-12T20:19:15.956Z,90.20
2018-04-12T20:21:44.410Z,90.20
2018-04-12T20:24:11.943Z,90.60
2018-04-12T20:26:39.421Z,87.70
2018-04-12T20:29:06.964Z,85.10
2018-04-12T20:31:34.506Z,85.40
2018-04-12T20:34:02.027Z,85.60
2018-04-12T20:36:30.326Z,89.10
2018-04-12T20:38:57.843Z,89.00
2018-04-12T20:41:25.347Z,89.90
2018-04-12T20:43:53.753Z,90.10
2018-04-12T20:46:21.226Z,89.30
2018-04-12T20:48:48.758Z,86.90
2018-04-12T20:51:18.187Z,87.20
2018-04-12T20:53:45.695Z,87.60
2018-04-12T20:56:13.205Z,87.60
2018-04-12T20:58:40.692Z,90.00
2018-04-12T21:01:08.930Z,90.40
2018-04-12T21:03:36.401Z,90.40
2018-04-12T21:06:03.903Z,90.60
2018-04-12T21:08:31.746Z,90.60
2018-04-12T21:11:00.019Z,90.40
2018-04-12T21:13:28.326Z,90.20
2018-04-12T21:15:55.831Z,90.20
2018-04-12T21:18:23.336Z,90.20
2018-04-12T21:20:51.803Z,90.30
2018-04-12T21:23:20.087Z,90.40
2018-04-12T21:25:48.367Z,90.40
2018-04-12T21:28:15.862Z,90.30
2018-04-12T21:30:43.366Z,90.20
2018-04-12T21:33:11.624Z,89.80
2018-04-12T21:35:39.151Z,89.80
2018-04-12T21:38:06.654Z,89.80
2018-04-12T21:40:34.923Z,89.10
2018-04-12T21:43:03.221Z,89.50
2018-04-12T21:45:30.687Z,89.40
2018-04-12T21:47:59.134Z,90.10
2018-04-12T21:50:27.448Z,90.70
2018-04-12T21:52:54.919Z,90.60
2018-04-12T21:55:22.448Z,90.70
2018-04-12T21:57:49.940Z,91.00
2018-04-12T22:00:17.441Z,90.70
2018-04-12T22:02:44.968Z,91.50
2018-04-12T22:05:12.446Z,91.70
2018-04-12T22:07:39.951Z,92.00
2018-04-12T22:10:07.411Z,92.00
2018-04-12T22:12:34.939Z,92.40
2018-04-12T22:15:03.221Z,92.70
2018-04-12T22:17:31.457Z,92.90
2018-04-12T22:19:58.976Z,92.90
2018-04-12T22:22:26.479Z,92.60
2018-04-12T22:24:53.975Z,92.70
2018-04-12T22:27:22.279Z,92.90
2018-04-12T22:29:49.779Z,92.90
2018-04-12T22:32:17.271Z,92.80
2018-04-12T22:34:44.755Z,93.10
2018-04-12T22:37:12.262Z,93.40
2018-04-12T22:39:40.501Z,93.50
2018-04-12T22:42:07.998Z,93.50
2018-04-12T22:44:36.293Z,93.80
2018-04-12T22:47:03.787Z,93.80
2018-04-12T22:49:32.031Z,94.10
2018-04-12T22:51:59.579Z,94.10
2018-04-12T22:54:28.851Z,94.50
2018-04-12T22:56:56.363Z,94.50
2018-04-12T22:59:23.841Z,94.70
2018-04-12T23:01:51.388Z,95.10
2018-04-12T23:04:18.912Z,95.40
2018-04-12T23:06:46.444Z,95.60
2018-04-12T23:09:13.955Z,95.70
2018-04-12T23:11:41.462Z,95.90
2018-04-12T23:14:08.984Z,96.10
2018-04-12T23:16:37.379Z,96.20
2018-04-12T23:19:04.840Z,96.30
2018-04-12T23:21:32.371Z,96.40
2018-04-12T23:24:00.185Z,96.50
2018-04-12T23:26:28.436Z,96.50
2018-04-12T23:28:55.972Z,96.40
2018-04-12T23:31:23.476Z,96.40
2018-04-12T23:33:51.796Z,96.60
2018-04-12T23:36:19.303Z,96.60
2018-04-12T23:38:46.771Z,96.70
2018-04-12T23:41:15.012Z,97.00
2018-04-12T23:43:42.494Z,97.30
2018-04-12T23:46:10.782Z,96.60
2018-04-12T23:48:39.048Z,96.40
2018-04-12T23:51:06.571Z,96.30
2018-04-12T23:53:34.092Z,96.20
2018-04-12T23:56:01.610Z,96.40
2018-04-12T23:58:29.115Z,96.60
